Terminal Aerodrome Forecast
Issued by NWS Wilmington, NC

Home | Current Version | Previous Version | Text Only | Print | Product List | Glossary On
Versions: 1 2 3 4 5 6 7 8 9 10 11 12 13 14 15 16 17 18 19 20 21 22 23 24 25 26 27 28 29 30 31 32 33 34 35 36
000
FTUS42 KILM 221737
TAFFLO
TAF
KFLO 221737Z 2218/2318 18007KT P6SM SCT007 SCT040 BKN100
      TEMPO 2218/2220 BKN007
     FM222000 16010KT 4SM -SHRA BR SCT015 OVC025
      TEMPO 2220/2222 2SM -RA BR BKN007 OVC020
     FM222200 18013G21KT 5SM TSRA BR BKN020CB OVC030
      TEMPO 2222/2302 VRB30G45KT 1SM +TSRA BR BKN007 OVC015CB
     FM230300 22013KT P6SM SCT025 SCT080 BKN250
     FM231100 20010KT P6SM VCSH SCT025 OVC100=

USA.gov is the U.S. government's official web portal to all federal, state and local government web resources and services.